createdAt,value
2018-07-31T00:08:04.544Z,1007.5
2018-07-31T00:18:18.311Z,1007.5
2018-07-31T00:28:32.218Z,1007.6
2018-07-31T00:38:46.180Z,1007.6
2018-07-31T00:49:01.528Z,1007.5
2018-07-31T00:59:16.708Z,1007.5
2018-07-31T01:09:31.297Z,1007.5
2018-07-31T01:19:45.730Z,1007.4
2018-07-31T01:29:59.730Z,1007.6
2018-07-31T01:40:13.583Z,1007.6
2018-07-31T02:00:43.788Z,1007.3
2018-07-31T02:10:58.478Z,1007.3
2018-07-31T02:21:13.263Z,1007.3
2018-07-31T02:31:28.660Z,1007.3
2018-07-31T02:41:43.194Z,1007.3
2018-07-31T02:51:58.113Z,1007.3
2018-07-31T03:02:12.738Z,1007.4
2018-07-31T03:12:26.664Z,1007.4
2018-07-31T03:22:41.330Z,1007.4
2018-07-31T03:32:56.959Z,1007.6
2018-07-31T03:43:11.875Z,1007.6
2018-07-31T03:53:26.452Z,1007.7
2018-07-31T04:03:40.016Z,1007.9
2018-07-31T04:13:54.301Z,1007.8
2018-07-31T04:24:09.992Z,1007.8
2018-07-31T04:34:25.443Z,1007.8
2018-07-31T04:44:39.510Z,1008
2018-07-31T04:54:54.134Z,1008
2018-07-31T05:05:09.300Z,1008
2018-07-31T05:15:23.644Z,1008.2
2018-07-31T05:25:39.333Z,1008.1
2018-07-31T05:35:54.194Z,1008.1
2018-07-31T05:46:08.817Z,1008.1
2018-07-31T05:56:23.947Z,1008.2
2018-07-31T06:06:39.700Z,1008.3
2018-07-31T06:16:54.312Z,1008.4
2018-07-31T06:27:08.915Z,1008.4
2018-07-31T06:37:23.992Z,1008.6
2018-07-31T06:47:37.720Z,1008.8
2018-07-31T06:57:51.532Z,1008.8
2018-07-31T07:08:06.053Z,1009
2018-07-31T07:18:21.398Z,1009.1
2018-07-31T07:28:36.205Z,1009.1
2018-07-31T07:38:50.346Z,1009
2018-07-31T07:49:05.872Z,1008.9
2018-07-31T07:59:20.368Z,1008.9
2018-07-31T08:09:34.667Z,1008.9
2018-07-31T08:19:49.036Z,1008.9
2018-07-31T08:30:04.002Z,1008.9
2018-07-31T08:40:19.459Z,1009
2018-07-31T09:00:48.833Z,1009.1
2018-07-31T09:11:04.537Z,1009.3
2018-07-31T09:21:19.479Z,1009.3
2018-07-31T09:31:33.584Z,1009.8
2018-07-31T09:41:47.837Z,1009.6
2018-07-31T09:52:03.530Z,1009.2
2018-07-31T10:02:19.776Z,1009.2
2018-07-31T10:12:35.127Z,1009.5
2018-07-31T10:22:49.699Z,1009.3
2018-07-31T10:33:05.142Z,1009.6
2018-07-31T10:43:20.623Z,1009.4
2018-07-31T10:53:34.634Z,1009.5
2018-07-31T11:03:50.169Z,1009.5
2018-07-31T11:14:06.009Z,1009.3
2018-07-31T11:24:21.908Z,1009.5
2018-07-31T11:34:36.532Z,1009.4
2018-07-31T11:44:52.457Z,1009.5
2018-07-31T11:55:08.279Z,1009.1
2018-07-31T12:05:23.946Z,1009.1
2018-07-31T12:15:38.026Z,1009.1
2018-07-31T12:25:52.473Z,1009
2018-07-31T12:36:07.198Z,1009.4
2018-07-31T12:46:22.930Z,1009.9
2018-07-31T12:56:38.205Z,1010.1
2018-07-31T13:06:52.187Z,1010.5
2018-07-31T13:17:07.367Z,1009.4
2018-07-31T13:27:23.179Z,1009.5
2018-07-31T13:37:37.935Z,1009.3
2018-07-31T13:47:52.988Z,1009.6
2018-07-31T13:58:07.370Z,1009.6
2018-07-31T14:08:22.875Z,1009.5
2018-07-31T14:18:38.163Z,1009.5
2018-07-31T14:28:52.532Z,1009.8
2018-07-31T14:39:06.523Z,1009.5
2018-07-31T14:49:22.375Z,1009.7
2018-07-31T14:59:36.637Z,1009.7
2018-07-31T15:09:52.293Z,1009.6
2018-07-31T15:30:21.724Z,1010
2018-07-31T15:40:37.360Z,1010.1
2018-07-31T15:50:53.332Z,1010
2018-07-31T16:01:08.001Z,1009.8
2018-07-31T16:11:23.034Z,1010
2018-07-31T16:21:38.536Z,1010.2
2018-07-31T16:31:52.699Z,1010
2018-07-31T16:42:07.279Z,1010
2018-07-31T16:52:21.801Z,1010
2018-07-31T17:02:36.533Z,1010.1
2018-07-31T17:12:51.250Z,1010.4
2018-07-31T17:23:06.572Z,1010.2
2018-07-31T17:33:20.997Z,1010.4
2018-07-31T17:43:35.732Z,1010.5
2018-07-31T17:53:49.693Z,1010.4
2018-07-31T18:04:03.545Z,1010.6
2018-07-31T18:14:19.715Z,1010.7
2018-07-31T18:24:34.881Z,1010.8
2018-07-31T18:34:50.542Z,1010.9
2018-07-31T18:45:06.163Z,1011.1
2018-07-31T18:55:21.687Z,1011.3
2018-07-31T19:05:36.374Z,1011.4
2018-07-31T19:15:50.963Z,1011.6
2018-07-31T19:26:05.771Z,1011.8
2018-07-31T19:36:20.409Z,1011.8
2018-07-31T19:46:35.674Z,1011.9
2018-07-31T19:56:49.895Z,1012
2018-07-31T20:07:05.123Z,1012
2018-07-31T20:17:19.979Z,1012.2
2018-07-31T20:27:34.584Z,1012.4
2018-07-31T20:37:49.585Z,1012.4
2018-07-31T20:48:04.938Z,1012.6
2018-07-31T20:58:18.982Z,1012.7
2018-07-31T21:08:33.360Z,1012.8
2018-07-31T21:18:49.244Z,1012.9
2018-07-31T21:29:04.271Z,1012.8
2018-07-31T21:39:18.127Z,1012.8
2018-07-31T21:49:32.970Z,1013
2018-07-31T21:59:46.965Z,1013
2018-07-31T22:10:01.942Z,1013.1
2018-07-31T22:20:16.985Z,1013.2
2018-07-31T22:30:32.238Z,1013.3
2018-07-31T22:40:47.897Z,1013.4
2018-07-31T22:51:02.431Z,1013.4
2018-07-31T23:01:16.898Z,1013.5
2018-07-31T23:11:30.762Z,1013.6
2018-07-31T23:21:45.375Z,1013.6
2018-07-31T23:32:00.191Z,1013.5
2018-07-31T23:42:14.297Z,1013.5
2018-07-31T23:52:30.010Z,1013.6
